Time;durP1;ratioP1;P1;durP2;ratioP2;P2;SDS_P1;SDS_P2;PMS_P1;PMS_P2;Temp;Humidity;BMP_temperature;BMP_pressure;BME280_temperature;BME280_humidity;BME280_pressure;Samples;Min_cycle;Max_cycle;Signal;HPM_P1;HPM_P2
2023/01/12 00:01:06;;;;;;;7.70;2.40;;;;;;;;;;110065;1280;22104;-78
2023/01/12 00:03:35;;;;;;;11.70;3.00;;;;;;;;;;110061;1280;22167;-79
2023/01/12 00:06:06;;;;;;;7.60;2.40;;;;;;;;;;110053;1280;22433;-79
2023/01/12 00:13:56;;;;;;;9.60;3.60;;;;;;;;;;104200;1292;545156;-83
2023/01/12 00:16:34;;;;;;;9.60;3.20;;;;;;;;;;106142;1286;22563;-81
2023/01/12 00:19:29;;;;;;;9.30;3.70;;;;;;;;;;106367;1286;22543;-81
2023/01/12 00:22:22;;;;;;;11.00;3.20;;;;;;;;;;106365;1286;22637;-83
2023/01/12 00:25:13;;;;;;;;;;;;;;;;;;;;;
2023/01/12 00:27:56;;;;;;;8.10;2.60;;;;;;;;;;102850;1285;4882027;-81
2023/01/12 00:30:35;;;;;;;10.10;3.00;;;;;;;;;;106459;1284;25285;-82
2023/01/12 00:33:20;;;;;;;7.80;2.60;;;;;;;;;;106476;1284;22536;-78
2023/01/12 00:36:10;;;;;;;10.40;2.60;;;;;;;;;;106441;1284;23140;-82
2023/01/12 00:38:49;;;;;;;12.60;3.10;;;;;;;;;;107236;1272;24323;-81
2023/01/12 00:47:58;;;;;;;10.70;3.50;;;;;;;;;;107270;1273;25340;-80
2023/01/12 00:50:32;;;;;;;11.80;3.20;;;;;;;;;;107258;1273;24253;-81
2023/01/12 00:53:30;;;;;;;10.70;3.00;;;;;;;;;;107161;1269;25248;-79
2023/01/12 00:56:32;;;;;;;;;;;;;;;;;;;;;
2023/01/12 00:59:10;;;;;;;12.80;3.70;;;;;;;;;;107166;1272;22519;-82
2023/01/12 01:01:37;;;;;;;11.80;4.00;;;;;;;;;;107258;1272;22514;-86
2023/01/12 01:04:22;;;;;;;14.90;5.00;;;;;;;;;;107214;1251;22520;-80
2023/01/12 01:06:57;;;;;;;12.00;3.80;;;;;;;;;;107090;1274;24298;-83
2023/01/12 01:09:24;;;;;;;12.70;4.30;;;;;;;;;;107141;1274;24226;-83
2023/01/12 01:11:51;;;;;;;10.40;4.00;;;;;;;;;;107038;1276;22530;-81
2023/01/12 01:15:24;;;;;;;13.20;5.00;;;;;;;;;;106821;1252;25334;-78
2023/01/12 01:17:51;;;;;;;14.80;5.20;;;;;;;;;;106964;1275;24233;-80
2023/01/12 01:20:48;;;;;;;12.70;5.10;;;;;;;;;;107198;1275;25363;-83
2023/01/12 01:23:28;;;;;;;18.10;6.90;;;;;;;;;;107129;1275;22532;-82
2023/01/12 01:26:24;;;;;;;13.70;6.50;;;;;;;;;;106988;1257;22474;-83
2023/01/12 01:28:55;;;;;;;17.80;6.90;;;;;;;;;;107036;1275;22531;-82
2023/01/12 01:31:28;;;;;;;13.40;7.10;;;;;;;;;;106971;1275;25370;-82
2023/01/12 01:34:08;;;;;;;19.10;8.00;;;;;;;;;;107015;1275;22066;-81
2023/01/12 01:36:59;;;;;;;19.80;9.20;;;;;;;;;;107171;1256;24947;-83
2023/01/12 01:39:59;;;;;;;23.90;9.70;;;;;;;;;;106994;1275;24579;-78
2023/01/12 01:42:36;;;;;;;19.60;8.30;;;;;;;;;;107055;1275;22527;-82
2023/01/12 01:45:23;;;;;;;;;;;;;;;;;;;;;
2023/01/12 01:48:13;;;;;;;23.20;8.40;;;;;;;;;;107007;1275;24177;-80
2023/01/12 01:51:11;;;;;;;22.20;8.60;;;;;;;;;;106907;1275;22530;-79
2023/01/12 01:53:57;;;;;;;;;;;;;;;;;;;;;
2023/01/12 01:56:43;;;;;;;;;;;;;;;;;;;;;
2023/01/12 01:59:31;;;;;;;16.10;6.40;;;;;;;;;;106948;1275;22529;-84
2023/01/12 02:02:44;;;;;;;17.50;8.00;;;;;;;;;;106967;1275;23014;-81
2023/01/12 02:05:02;;;;;;;16.70;6.90;;;;;;;;;;107064;1262;22510;-80
2023/01/12 02:08:08;;;;;;;15.90;6.10;;;;;;;;;;106805;1259;25430;-82
2023/01/12 02:10:38;;;;;;;19.90;6.50;;;;;;;;;;107097;1275;25310;-81
2023/01/12 02:16:34;;;;;;;15.00;6.20;;;;;;;;;;107076;1251;25889;-80
2023/01/12 02:19:34;;;;;;;14.80;6.50;;;;;;;;;;106786;1281;25524;-79
2023/01/12 02:22:27;;;;;;;15.60;7.00;;;;;;;;;;106471;1281;22552;-78
2023/01/12 02:25:16;;;;;;;15.70;5.30;;;;;;;;;;106690;1281;22535;-83
2023/01/12 02:28:15;;;;;;;17.00;5.00;;;;;;;;;;106563;1275;24247;-79
2023/01/12 02:31:33;;;;;;;12.80;5.20;;;;;;;;;;106803;1281;24196;-81
2023/01/12 02:34:38;;;;;;;11.10;4.20;;;;;;;;;;106565;1281;22492;-78
2023/01/12 02:37:58;;;;;;;9.20;4.10;;;;;;;;;;106010;1273;23268;-80
2023/01/12 02:42:39;;;;;;;14.60;5.50;;;;;;;;;;105965;1289;22551;-77
2023/01/12 02:44:18;;;;;;;13.80;7.80;;;;;;;;;;105412;1295;22551;-78
2023/01/12 02:47:17;;;;;;;;;;;;;;;;;;;;;
2023/01/12 02:50:09;;;;;;;21.60;8.70;;;;;;;;;;105692;1295;25536;-82
2023/01/12 02:53:08;;;;;;;21.60;8.50;;;;;;;;;;105725;1295;24281;-83
2023/01/12 02:55:48;;;;;;;20.30;8.70;;;;;;;;;;105855;1288;26672;-82
2023/01/12 02:59:11;;;;;;;14.30;6.10;;;;;;;;;;105779;1274;24262;-85
2023/01/12 03:01:50;;;;;;;14.40;6.20;;;;;;;;;;106100;1288;26507;-80
2023/01/12 03:04:43;;;;;;;11.70;5.20;;;;;;;;;;106023;1288;22534;-79
2023/01/12 03:07:37;;;;;;;12.50;4.60;;;;;;;;;;105993;1271;22558;-80
2023/01/12 03:10:14;;;;;;;15.70;6.20;;;;;;;;;;105925;1288;22542;-79
2023/01/12 03:13:05;;;;;;;15.80;6.20;;;;;;;;;;106111;1281;22672;-79
2023/01/12 03:16:05;;;;;;;16.70;7.10;;;;;;;;;;106943;1275;22538;-82
2023/01/12 03:19:08;;;;;;;;;;;;;;;;;;;;;
2023/01/12 03:22:27;;;;;;;22.80;10.20;;;;;;;;;;107209;1274;23873;-84
2023/01/12 03:25:53;;;;;;;17.40;8.20;;;;;;;;;;107185;1274;22623;-82
2023/01/12 03:29:21;;;;;;;24.30;11.30;;;;;;;;;;107174;1254;25229;-82
2023/01/12 03:32:12;;;;;;;27.00;12.80;;;;;;;;;;107168;1275;25459;-81
2023/01/12 03:35:44;;;;;;;23.50;11.10;;;;;;;;;;107033;1275;24032;-84
2023/01/12 03:38:20;;;;;;;13.50;5.40;;;;;;;;;;107205;1274;25274;-83
2023/01/12 03:42:16;;;;;;;11.70;5.40;;;;;;;;;;106762;1281;22577;-81
2023/01/12 03:48:28;;;;;;;;;;;;;;;;;;;;;
2023/01/12 03:52:18;;;;;;;12.70;4.80;;;;;;;;;;106759;1281;22540;-82
2023/01/12 03:54:59;;;;;;;;;;;;;;;;;;;;;
2023/01/12 03:58:00;;;;;;;11.80;4.70;;;;;;;;;;106767;1281;25862;-78
2023/01/12 04:01:31;;;;;;;11.40;4.10;;;;;;;;;;106735;1258;22754;-85
2023/01/12 04:04:13;;;;;;;10.50;4.70;;;;;;;;;;105977;1289;24279;-82
2023/01/12 04:07:02;;;;;;;10.60;4.10;;;;;;;;;;106015;1289;22559;-80
2023/01/12 04:09:57;;;;;;;;;;;;;;;;;;;;;
2023/01/12 04:13:16;;;;;;;;;;;;;;;;;;;;;
2023/01/12 04:16:45;;;;;;;15.30;4.90;;;;;;;;;;106045;1289;24309;-80
2023/01/12 04:19:30;;;;;;;10.30;4.50;;;;;;;;;;106471;1283;25485;-79
2023/01/12 04:26:11;;;;;;;11.80;4.50;;;;;;;;;;106185;1284;22620;-85
2023/01/12 04:29:29;;;;;;;10.80;4.10;;;;;;;;;;106108;1287;22546;-83
2023/01/12 04:32:36;;;;;;;9.90;4.00;;;;;;;;;;106143;1268;25496;-80
2023/01/12 04:35:33;;;;;;;10.20;4.20;;;;;;;;;;106500;1283;22851;-79
2023/01/12 04:38:15;;;;;;;11.70;4.20;;;;;;;;;;106582;1283;24308;-82
2023/01/12 04:41:57;;;;;;;8.80;2.90;;;;;;;;;;106690;1274;25476;-79
2023/01/12 04:44:32;;;;;;;9.50;3.10;;;;;;;;;;107134;1274;22547;-82
2023/01/12 04:47:58;;;;;;;;;;;;;;;;;;;;;
2023/01/12 04:50:50;;;;;;;10.20;2.90;;;;;;;;;;106749;1263;24287;-80
2023/01/12 04:53:48;;;;;;;11.50;3.00;;;;;;;;;;106808;1278;24196;-79
2023/01/12 04:57:08;;;;;;;11.50;3.30;;;;;;;;;;106633;1281;22536;-81
2023/01/12 04:59:59;;;;;;;11.70;3.20;;;;;;;;;;106568;1281;24204;-79
2023/01/12 05:03:32;;;;;;;11.30;3.50;;;;;;;;;;106633;1262;25455;-82
2023/01/12 05:06:32;;;;;;;;;;;;;;;;;;;;;
2023/01/12 05:12:24;;;;;;;15.80;5.10;;;;;;;;;;105996;1281;22858;-78
2023/01/12 05:15:27;;;;;;;17.50;6.10;;;;;;;;;;105998;1289;22546;-82
2023/01/12 05:18:41;;;;;;;12.10;3.90;;;;;;;;;;106040;1289;24240;-78
2023/01/12 05:21:08;;;;;;;9.90;3.10;;;;;;;;;;105973;1289;22552;-84
2023/01/12 05:24:15;;;;;;;11.70;3.80;;;;;;;;;;106005;1271;22692;-81
2023/01/12 05:27:34;;;;;;;11.70;3.80;;;;;;;;;;106134;1283;22529;-81
2023/01/12 05:30:16;;;;;;;10.40;3.70;;;;;;;;;;106493;1283;22609;-81
2023/01/12 05:33:06;;;;;;;12.20;3.70;;;;;;;;;;106478;1283;22658;-80
2023/01/12 05:35:46;;;;;;;;;;;;;;;;;;;;;
2023/01/12 05:39:27;;;;;;;;;;;;;;;;;;;;;
2023/01/12 05:45:47;;;;;;;12.50;5.30;;;;;;;;;;107554;1275;22537;-78
2023/01/12 05:48:41;;;;;;;16.00;5.60;;;;;;;;;;107231;1268;24339;-80
2023/01/12 05:51:26;;;;;;;14.40;5.10;;;;;;;;;;107304;1275;24242;-80
2023/01/12 05:54:23;;;;;;;11.70;4.20;;;;;;;;;;107292;1264;22534;-79
2023/01/12 05:58:16;;;;;;;14.00;4.10;;;;;;;;;;107180;1273;22647;-85
2023/01/12 06:00:39;;;;;;;15.00;4.50;;;;;;;;;;107337;1267;24189;-81
2023/01/12 06:03:15;;;;;;;11.80;4.30;;;;;;;;;;107205;1257;23036;-82
2023/01/12 06:05:54;;;;;;;13.00;4.20;;;;;;;;;;107256;1272;24251;-79
2023/01/12 06:08:21;;;;;;;13.30;4.10;;;;;;;;;;110500;1276;21898;-78
2023/01/12 06:10:48;;;;;;;12.00;4.20;;;;;;;;;;110435;1276;22965;-78
2023/01/12 06:16:19;;;;;;;16.40;4.90;;;;;;;;;;110608;1272;22785;-78
2023/01/12 06:18:49;;;;;;;14.80;5.10;;;;;;;;;;110644;1275;22126;-79
2023/01/12 06:21:16;;;;;;;17.80;5.40;;;;;;;;;;110523;1275;22125;-78
2023/01/12 06:23:46;;;;;;;12.40;5.00;;;;;;;;;;110659;1259;22045;-78
2023/01/12 06:26:23;;;;;;;14.30;5.50;;;;;;;;;;110483;1275;22203;-79
2023/01/12 06:28:59;;;;;;;13.30;5.00;;;;;;;;;;110456;1275;22132;-80
2023/01/12 06:31:31;;;;;;;14.00;3.90;;;;;;;;;;110463;1276;22832;-79
2023/01/12 06:34:06;;;;;;;15.40;4.10;;;;;;;;;;110711;1257;22578;-78
2023/01/12 06:36:40;;;;;;;14.30;3.50;;;;;;;;;;110470;1266;22137;-79
2023/01/12 06:39:07;;;;;;;13.20;3.30;;;;;;;;;;110536;1266;22919;-78
2023/01/12 06:44:47;;;;;;;14.20;3.00;;;;;;;;;;110799;1260;22944;-78
2023/01/12 06:47:14;;;;;;;10.40;3.40;;;;;;;;;;110431;1276;22129;-78
2023/01/12 06:53:35;;;;;;;11.30;3.20;;;;;;;;;;109993;1260;22228;-78
2023/01/12 06:56:02;;;;;;;11.20;2.90;;;;;;;;;;109918;1283;22828;-77
2023/01/12 06:59:14;;;;;;;8.30;2.40;;;;;;;;;;109977;1283;22183;-78
2023/01/12 07:01:27;;;;;;;12.00;3.30;;;;;;;;;;109985;1283;22132;-78
2023/01/12 07:04:06;;;;;;;9.30;3.00;;;;;;;;;;109951;1265;22126;-78
2023/01/12 07:13:53;;;;;;;13.30;4.40;;;;;;;;;;109675;1267;22876;-78
2023/01/12 07:16:20;;;;;;;10.60;3.70;;;;;;;;;;109704;1288;22183;-77
2023/01/12 07:18:53;;;;;;;13.30;4.00;;;;;;;;;;109716;1288;22788;-78
2023/01/12 07:21:20;;;;;;;13.10;4.00;;;;;;;;;;109708;1289;22966;-79
2023/01/12 07:23:57;;;;;;;12.70;4.20;;;;;;;;;;109594;1289;22076;-78
2023/01/12 07:26:44;;;;;;;11.30;3.70;;;;;;;;;;109900;1271;22445;-78
2023/01/12 07:29:24;;;;;;;12.90;3.90;;;;;;;;;;109866;1280;22205;-78
2023/01/12 07:31:50;;;;;;;11.20;3.10;;;;;;;;;;110018;1280;22177;-77
2023/01/12 07:34:20;;;;;;;10.60;4.30;;;;;;;;;;110052;1260;22199;-77
2023/01/12 07:47:50;;;;;;;9.70;3.30;;;;;;;;;;104755;1286;549882;-85
2023/01/12 07:50:17;;;;;;;13.30;3.20;;;;;;;;;;104881;1286;1862554;-81
2023/01/12 07:52:46;;;;;;;10.00;3.10;;;;;;;;;;106343;1286;23914;-79
2023/01/12 07:55:15;;;;;;;8.20;2.90;;;;;;;;;;106481;1286;24221;-83
2023/01/12 07:58:05;;;;;;;9.40;2.60;;;;;;;;;;106367;1271;22645;-80
2023/01/12 08:00:45;;;;;;;10.80;3.10;;;;;;;;;;106409;1287;24302;-78
2023/01/12 08:03:20;;;;;;;16.30;6.30;;;;;;;;;;106461;1282;22066;-82
2023/01/12 08:05:47;;;;;;;23.00;8.40;;;;;;;;;;106535;1282;22491;-77
2023/01/12 08:08:18;;;;;;;23.50;6.90;;;;;;;;;;106682;1273;24243;-84
2023/01/12 08:11:09;;;;;;;21.20;6.60;;;;;;;;;;106417;1281;22561;-79
2023/01/12 08:13:44;;;;;;;26.50;8.80;;;;;;;;;;106578;1281;22560;-82
2023/01/12 08:16:39;;;;;;;20.30;7.10;;;;;;;;;;106511;1260;22549;-82
2023/01/12 08:19:15;;;;;;;13.80;4.80;;;;;;;;;;106579;1282;22561;-82
2023/01/12 08:21:47;;;;;;;10.50;3.20;;;;;;;;;;106480;1282;22746;-84
2023/01/12 08:24:15;;;;;;;13.30;3.10;;;;;;;;;;106631;1282;22663;-84
2023/01/12 08:26:47;;;;;;;11.60;3.10;;;;;;;;;;106458;1281;22646;-79
2023/01/12 08:29:22;;;;;;;11.60;2.80;;;;;;;;;;106480;1281;22549;-82
2023/01/12 08:31:52;;;;;;;16.10;3.40;;;;;;;;;;106597;1281;25309;-82
2023/01/12 08:34:19;;;;;;;11.10;3.30;;;;;;;;;;106495;1281;22558;-82
2023/01/12 08:37:10;;;;;;;11.80;3.50;;;;;;;;;;106537;1264;25243;-78
2023/01/12 08:39:38;;;;;;;11.80;3.50;;;;;;;;;;106496;1283;22541;-80
2023/01/12 08:42:11;;;;;;;12.70;3.80;;;;;;;;;;106505;1283;25326;-81
2023/01/12 08:44:38;;;;;;;15.70;4.60;;;;;;;;;;106484;1283;22623;-81
2023/01/12 08:47:05;;;;;;;15.40;4.30;;;;;;;;;;106551;1261;25482;-81
2023/01/12 08:49:37;;;;;;;14.40;3.50;;;;;;;;;;106470;1282;22647;-83
2023/01/12 08:52:04;;;;;;;16.30;3.60;;;;;;;;;;106463;1282;24240;-79
2023/01/12 08:54:31;;;;;;;14.10;3.80;;;;;;;;;;106949;1276;22553;-79
2023/01/12 08:56:58;;;;;;;18.20;5.60;;;;;;;;;;106960;1253;22505;-78
2023/01/12 08:59:34;;;;;;;16.30;5.40;;;;;;;;;;106983;1276;22536;-82
2023/01/12 09:02:01;;;;;;;15.70;4.50;;;;;;;;;;106954;1276;23846;-83
2023/01/12 09:04:28;;;;;;;18.80;4.50;;;;;;;;;;106912;1276;22533;-83
2023/01/12 09:07:00;;;;;;;14.40;4.10;;;;;;;;;;106993;1276;25352;-81
2023/01/12 09:09:27;;;;;;;17.80;5.30;;;;;;;;;;107068;1257;22743;-80
2023/01/12 09:12:04;;;;;;;22.40;6.30;;;;;;;;;;106937;1273;22537;-79
2023/01/12 09:15:05;;;;;;;14.60;4.10;;;;;;;;;;107072;1276;25400;-82
2023/01/12 09:17:34;;;;;;;12.10;3.20;;;;;;;;;;107080;1263;22550;-85
2023/01/12 09:20:04;;;;;;;15.20;3.80;;;;;;;;;;106957;1276;22591;-82
2023/01/12 09:22:35;;;;;;;13.70;3.50;;;;;;;;;;106982;1276;24352;-82
2023/01/12 09:25:07;;;;;;;12.80;2.70;;;;;;;;;;106919;1276;22541;-83
2023/01/12 09:27:35;;;;;;;14.80;3.40;;;;;;;;;;106924;1276;22531;-79
2023/01/12 09:30:02;;;;;;;11.90;3.10;;;;;;;;;;107082;1257;25319;-82
2023/01/12 09:32:29;;;;;;;14.10;3.70;;;;;;;;;;106940;1276;24344;-81
2023/01/12 09:35:04;;;;;;;10.90;3.20;;;;;;;;;;106983;1276;22533;-85
2023/01/12 09:37:31;;;;;;;8.80;2.20;;;;;;;;;;106911;1276;22617;-80
2023/01/12 09:40:08;;;;;;;;;;;;;;;;;;;;;
2023/01/12 09:48:13;;;;;;;10.50;2.50;;;;;;;;;;107008;1254;22624;-79
2023/01/12 09:50:46;;;;;;;10.50;2.20;;;;;;;;;;106910;1275;23000;-82
2023/01/12 09:53:19;;;;;;;10.00;2.20;;;;;;;;;;107030;1275;22661;-80
2023/01/12 09:55:54;;;;;;;9.70;2.80;;;;;;;;;;107076;1275;23881;-81
2023/01/12 09:58:33;;;;;;;10.30;2.80;;;;;;;;;;107083;1275;25284;-80
2023/01/12 10:01:11;;;;;;;10.10;3.00;;;;;;;;;;106912;1276;24273;-83
2023/01/12 10:03:50;;;;;;;13.20;2.80;;;;;;;;;;106964;1276;24219;-83
2023/01/12 10:06:31;;;;;;;;;;;;;;;;;;;;;
2023/01/12 10:09:15;;;;;;;9.60;2.40;;;;;;;;;;107026;1257;22529;-77
2023/01/12 10:11:48;;;;;;;10.60;3.20;;;;;;;;;;107120;1275;22744;-83
2023/01/12 10:14:26;;;;;;;10.60;2.70;;;;;;;;;;106933;1275;22508;-78
2023/01/12 10:17:24;;;;;;;10.30;3.30;;;;;;;;;;107136;1275;24911;-80
2023/01/12 10:20:01;;;;;;;9.10;2.80;;;;;;;;;;107017;1261;22535;-83
2023/01/12 10:22:37;;;;;;;12.20;3.60;;;;;;;;;;107089;1261;22936;-83
2023/01/12 10:25:13;;;;;;;14.10;5.50;;;;;;;;;;106970;1276;24064;-82
2023/01/12 10:27:46;;;;;;;14.90;5.00;;;;;;;;;;106939;1276;22545;-84
2023/01/12 10:30:19;;;;;;;9.70;2.70;;;;;;;;;;106980;1257;22538;-84
2023/01/12 10:32:55;;;;;;;10.10;2.90;;;;;;;;;;107169;1275;24257;-81
2023/01/12 10:35:24;;;;;;;10.70;3.40;;;;;;;;;;107193;1252;22541;-82
2023/01/12 10:37:53;;;;;;;10.70;2.60;;;;;;;;;;107110;1275;24240;-83
2023/01/12 10:40:31;;;;;;;10.20;3.10;;;;;;;;;;107039;1257;24214;-80
2023/01/12 10:46:01;;;;;;;12.90;3.40;;;;;;;;;;106972;1276;22545;-79
2023/01/12 10:48:42;;;;;;;12.60;3.40;;;;;;;;;;107012;1273;22546;-81
2023/01/12 10:51:38;;;;;;;12.30;4.00;;;;;;;;;;106913;1276;22657;-83
2023/01/12 10:54:19;;;;;;;14.30;4.90;;;;;;;;;;106913;1276;23892;-83
2023/01/12 10:56:54;;;;;;;12.00;3.80;;;;;;;;;;106944;1276;22550;-81
2023/01/12 10:59:34;;;;;;;;;;;;;;;;;;;;;
2023/01/12 11:02:17;;;;;;;12.00;3.30;;;;;;;;;;103727;1298;545569;-78
2023/01/12 11:04:45;;;;;;;12.20;3.80;;;;;;;;;;105954;1288;25619;-81
2023/01/12 11:07:11;;;;;;;20.50;6.70;;;;;;;;;;106514;1279;22536;-79
2023/01/12 11:09:39;;;;;;;15.80;4.60;;;;;;;;;;106493;1282;24241;-84
2023/01/12 11:12:32;;;;;;;15.00;5.10;;;;;;;;;;106407;1265;22648;-84
2023/01/12 11:15:20;;;;;;;11.30;2.90;;;;;;;;;;105623;1274;1755425;-80
2023/01/12 11:17:49;;;;;;;11.30;3.50;;;;;;;;;;107097;1274;22530;-79
2023/01/12 11:20:38;;;;;;;11.40;3.00;;;;;;;;;;107159;1274;22668;-82
2023/01/12 11:23:11;;;;;;;14.30;3.30;;;;;;;;;;107098;1256;22533;-80
2023/01/12 11:25:45;;;;;;;10.60;2.30;;;;;;;;;;106957;1274;25341;-81
2023/01/12 11:28:16;;;;;;;8.60;2.40;;;;;;;;;;107118;1274;22620;-79
2023/01/12 11:30:53;;;;;;;9.60;2.40;;;;;;;;;;107065;1274;22527;-77
2023/01/12 11:33:32;;;;;;;8.30;2.50;;;;;;;;;;106892;1258;25348;-77
2023/01/12 11:36:05;;;;;;;7.60;1.90;;;;;;;;;;107036;1275;22783;-84
2023/01/12 11:38:42;;;;;;;8.20;2.20;;;;;;;;;;107098;1275;22635;-78
2023/01/12 11:41:18;;;;;;;10.00;2.80;;;;;;;;;;106911;1275;22535;-84
2023/01/12 11:44:05;;;;;;;13.90;2.70;;;;;;;;;;106940;1272;22750;-82
2023/01/12 11:46:45;;;;;;;9.40;2.50;;;;;;;;;;107119;1275;25227;-77
2023/01/12 11:49:12;;;;;;;12.80;3.00;;;;;;;;;;107226;1275;22552;-75
2023/01/12 11:51:39;;;;;;;10.40;2.60;;;;;;;;;;107115;1275;22533;-77
2023/01/12 11:54:17;;;;;;;11.50;3.00;;;;;;;;;;106982;1269;22773;-81
2023/01/12 11:57:06;;;;;;;11.30;2.40;;;;;;;;;;106971;1269;24256;-77
2023/01/12 11:59:52;;;;;;;11.90;2.60;;;;;;;;;;106667;1276;22540;-78
2023/01/12 12:02:31;;;;;;;11.90;2.80;;;;;;;;;;106732;1255;22645;-75
2023/01/12 12:05:15;;;;;;;9.30;2.40;;;;;;;;;;107009;1268;22548;-78
2023/01/12 12:08:06;;;;;;;9.50;2.80;;;;;;;;;;106910;1274;25283;-77
2023/01/12 12:10:33;;;;;;;11.80;3.10;;;;;;;;;;106918;1276;25129;-78
2023/01/12 12:13:09;;;;;;;10.80;3.10;;;;;;;;;;107039;1259;22533;-80
2023/01/12 12:15:39;;;;;;;9.90;2.10;;;;;;;;;;107166;1273;25233;-76
2023/01/12 12:18:34;;;;;;;10.10;2.50;;;;;;;;;;106848;1253;22534;-78
2023/01/12 12:21:11;;;;;;;10.30;2.80;;;;;;;;;;106961;1269;22696;-77
2023/01/12 12:23:55;;;;;;;12.30;2.90;;;;;;;;;;107040;1258;22543;-79
2023/01/12 12:26:31;;;;;;;11.30;3.60;;;;;;;;;;107066;1268;22557;-78
2023/01/12 12:29:16;;;;;;;12.80;3.80;;;;;;;;;;106958;1276;22542;-78
2023/01/12 12:31:46;;;;;;;13.30;3.90;;;;;;;;;;106775;1274;22539;-76
2023/01/12 12:34:32;;;;;;;12.90;3.40;;;;;;;;;;106831;1269;22545;-79
2023/01/12 12:37:10;;;;;;;9.80;2.60;;;;;;;;;;106723;1270;22533;-78
2023/01/12 12:40:07;;;;;;;15.90;4.10;;;;;;;;;;106836;1272;25256;-82
2023/01/12 12:45:29;;;;;;;17.40;4.30;;;;;;;;;;106871;1266;22565;-75
2023/01/12 12:48:26;;;;;;;12.70;3.60;;;;;;;;;;106817;1268;24345;-78
2023/01/12 12:51:05;;;;;;;13.50;3.90;;;;;;;;;;106969;1276;25259;-79
2023/01/12 12:53:37;;;;;;;17.00;4.30;;;;;;;;;;106852;1253;23117;-82
2023/01/12 12:56:15;;;;;;;17.40;3.70;;;;;;;;;;106921;1269;25301;-80
2023/01/12 12:58:46;;;;;;;11.40;3.00;;;;;;;;;;107048;1275;22532;-81
2023/01/12 13:01:35;;;;;;;9.40;3.20;;;;;;;;;;106900;1275;25354;-78
2023/01/12 13:04:09;;;;;;;11.70;3.00;;;;;;;;;;106813;1253;22876;-76
2023/01/12 13:06:56;;;;;;;11.40;3.20;;;;;;;;;;106943;1272;22656;-77
2023/01/12 13:09:33;;;;;;;9.90;2.70;;;;;;;;;;106920;1273;25555;-77
2023/01/12 13:12:00;;;;;;;10.00;3.70;;;;;;;;;;106813;1269;22540;-77
2023/01/12 13:14:34;;;;;;;11.30;3.30;;;;;;;;;;107051;1258;24238;-80
2023/01/12 13:17:04;;;;;;;11.00;2.80;;;;;;;;;;107007;1270;23373;-79
2023/01/12 13:19:42;;;;;;;12.60;4.10;;;;;;;;;;106816;1269;25239;-75
2023/01/12 13:22:27;;;;;;;11.80;2.80;;;;;;;;;;106897;1268;25356;-76
2023/01/12 13:25:02;;;;;;;13.20;3.30;;;;;;;;;;106810;1269;25342;-76
2023/01/12 13:28:03;;;;;;;13.80;2.90;;;;;;;;;;106975;1269;24267;-76
2023/01/12 13:31:01;;;;;;;8.80;2.10;;;;;;;;;;106864;1270;25567;-78
2023/01/12 13:33:31;;;;;;;10.00;2.70;;;;;;;;;;106885;1269;22776;-76
2023/01/12 13:35:59;;;;;;;11.10;3.20;;;;;;;;;;106779;1259;22622;-80
2023/01/12 13:38:30;;;;;;;11.90;3.40;;;;;;;;;;107060;1274;22556;-80
2023/01/12 13:41:13;;;;;;;14.10;3.40;;;;;;;;;;106881;1272;24232;-79
2023/01/12 13:43:54;;;;;;;13.60;3.50;;;;;;;;;;107001;1272;24339;-80
2023/01/12 13:46:54;;;;;;;11.70;3.10;;;;;;;;;;106878;1274;24229;-78
2023/01/12 13:49:28;;;;;;;11.80;3.50;;;;;;;;;;106831;1272;22633;-78
2023/01/12 13:51:56;;;;;;;18.50;4.80;;;;;;;;;;106964;1274;25357;-76
2023/01/12 13:54:27;;;;;;;12.90;4.10;;;;;;;;;;106930;1269;22536;-76
2023/01/12 13:56:58;;;;;;;12.50;3.60;;;;;;;;;;106991;1259;23316;-80
2023/01/12 13:59:26;;;;;;;9.70;2.90;;;;;;;;;;106888;1275;26500;-78
2023/01/12 14:01:54;;;;;;;12.50;3.70;;;;;;;;;;107013;1273;25223;-75
2023/01/12 14:04:46;;;;;;;13.20;3.70;;;;;;;;;;107063;1276;22527;-83
2023/01/12 14:07:16;;;;;;;15.60;4.80;;;;;;;;;;106666;1270;25268;-76
2023/01/12 14:09:55;;;;;;;11.50;3.20;;;;;;;;;;106579;1276;25410;-76
2023/01/12 14:12:41;;;;;;;13.90;3.60;;;;;;;;;;106451;1276;22523;-79
2023/01/12 14:18:11;;;;;;;9.30;3.00;;;;;;;;;;106882;1259;22541;-76
2023/01/12 14:20:57;;;;;;;8.80;2.60;;;;;;;;;;107067;1276;22650;-80
2023/01/12 14:23:47;;;;;;;11.30;3.20;;;;;;;;;;106724;1276;26489;-77
2023/01/12 14:26:16;;;;;;;12.90;3.50;;;;;;;;;;106859;1256;25331;-80
2023/01/12 14:28:44;;;;;;;10.80;2.90;;;;;;;;;;106831;1274;22523;-79
2023/01/12 14:31:30;;;;;;;9.90;3.00;;;;;;;;;;106860;1274;22544;-79
2023/01/12 14:33:59;;;;;;;9.50;2.80;;;;;;;;;;106681;1276;24409;-80
2023/01/12 14:36:28;;;;;;;8.90;2.50;;;;;;;;;;106898;1257;24195;-77
2023/01/12 14:38:59;;;;;;;10.70;2.20;;;;;;;;;;106890;1269;22610;-76
2023/01/12 14:47:02;;;;;;;11.70;2.90;;;;;;;;;;106873;1258;25241;-78
2023/01/12 14:49:30;;;;;;;13.80;5.10;;;;;;;;;;106949;1273;22618;-76
2023/01/12 14:52:21;;;;;;;12.90;3.20;;;;;;;;;;106863;1264;25351;-77
2023/01/12 14:54:48;;;;;;;7.90;2.00;;;;;;;;;;106792;1268;22547;-79
2023/01/12 14:57:22;;;;;;;8.40;2.50;;;;;;;;;;106925;1253;22530;-82
2023/01/12 14:59:49;;;;;;;11.50;1.90;;;;;;;;;;106951;1276;22543;-76
2023/01/12 15:02:42;;;;;;;7.40;1.90;;;;;;;;;;106966;1270;23944;-80
2023/01/12 15:05:12;;;;;;;9.70;2.60;;;;;;;;;;107004;1272;22536;-80
2023/01/12 15:08:18;;;;;;;12.20;3.50;;;;;;;;;;106956;1272;22599;-76
2023/01/12 15:10:54;;;;;;;9.60;2.80;;;;;;;;;;106948;1269;22535;-77
2023/01/12 15:13:34;;;;;;;9.60;3.10;;;;;;;;;;106987;1272;22757;-76
2023/01/12 15:27:22;;;;;;;7.60;2.20;;;;;;;;;;106867;1253;24352;-78
2023/01/12 15:29:52;;;;;;;9.50;2.30;;;;;;;;;;106917;1269;22671;-78
2023/01/12 15:32:25;;;;;;;8.30;2.20;;;;;;;;;;106734;1269;22580;-77
2023/01/12 15:34:52;;;;;;;7.20;2.20;;;;;;;;;;107009;1272;23122;-77
2023/01/12 15:37:22;;;;;;;8.90;2.10;;;;;;;;;;106862;1253;24227;-75
2023/01/12 15:40:00;;;;;;;9.30;1.90;;;;;;;;;;106836;1275;22532;-76
2023/01/12 15:42:27;;;;;;;8.10;2.20;;;;;;;;;;106929;1275;22606;-77
2023/01/12 15:45:15;;;;;;;8.60;1.60;;;;;;;;;;106932;1275;22579;-77
2023/01/12 15:47:51;;;;;;;6.00;1.40;;;;;;;;;;106948;1261;22495;-76
2023/01/12 15:50:21;;;;;;;7.00;1.60;;;;;;;;;;106886;1276;25328;-79
2023/01/12 15:52:49;;;;;;;6.60;1.70;;;;;;;;;;106867;1276;24635;-76
2023/01/12 15:55:21;;;;;;;7.50;2.20;;;;;;;;;;106988;1276;22758;-78
2023/01/12 15:57:50;;;;;;;6.80;2.00;;;;;;;;;;106876;1253;22685;-77
2023/01/12 16:00:19;;;;;;;6.60;1.50;;;;;;;;;;106925;1270;25568;-76
2023/01/12 16:02:50;;;;;;;8.80;2.10;;;;;;;;;;106966;1272;24199;-80
2023/01/12 16:05:19;;;;;;;11.00;2.30;;;;;;;;;;106894;1269;25386;-77
2023/01/12 16:07:56;;;;;;;9.10;2.60;;;;;;;;;;106826;1276;24204;-81
2023/01/12 16:10:23;;;;;;;7.90;2.30;;;;;;;;;;106846;1269;24278;-79
2023/01/12 16:12:54;;;;;;;10.40;2.40;;;;;;;;;;106842;1272;22541;-79
2023/01/12 16:15:24;;;;;;;8.10;2.10;;;;;;;;;;107023;1270;22533;-80
2023/01/12 16:17:53;;;;;;;9.60;2.40;;;;;;;;;;106801;1270;22578;-83
2023/01/12 16:20:33;;;;;;;9.80;2.30;;;;;;;;;;106834;1269;22537;-77
2023/01/12 16:23:00;;;;;;;6.50;1.90;;;;;;;;;;106625;1276;24649;-80
2023/01/12 16:25:32;;;;;;;7.80;1.90;;;;;;;;;;106811;1276;25233;-80
2023/01/12 16:28:01;;;;;;;6.70;2.00;;;;;;;;;;107126;1275;22674;-77
2023/01/12 16:30:44;;;;;;;9.40;2.80;;;;;;;;;;107054;1260;22681;-78
2023/01/12 16:33:18;;;;;;;7.90;2.40;;;;;;;;;;106975;1268;22530;-79
2023/01/12 16:35:45;;;;;;;8.10;2.40;;;;;;;;;;106983;1270;22631;-77
2023/01/12 16:38:15;;;;;;;7.60;2.80;;;;;;;;;;106841;1269;22740;-77
2023/01/12 16:40:47;;;;;;;11.10;3.30;;;;;;;;;;106932;1258;22536;-79
2023/01/12 16:43:21;;;;;;;7.30;2.30;;;;;;;;;;106969;1269;22493;-81
2023/01/12 16:45:57;;;;;;;7.90;2.40;;;;;;;;;;106856;1275;25432;-79
2023/01/12 16:55:32;;;;;;;10.50;2.90;;;;;;;;;;103776;1292;544849;-78
2023/01/12 16:58:05;;;;;;;8.10;2.30;;;;;;;;;;106039;1282;25466;-82
2023/01/12 17:00:32;;;;;;;7.90;2.40;;;;;;;;;;106288;1284;25403;-79
2023/01/12 17:03:09;;;;;;;9.00;2.60;;;;;;;;;;106038;1286;22551;-79
2023/01/12 17:05:40;;;;;;;8.90;2.10;;;;;;;;;;106950;1274;22502;-80
2023/01/12 17:08:08;;;;;;;12.80;2.60;;;;;;;;;;105607;1273;1880958;-78
2023/01/12 17:10:45;;;;;;;8.50;2.30;;;;;;;;;;107159;1272;25049;-79
2023/01/12 17:13:12;;;;;;;8.40;2.40;;;;;;;;;;106952;1273;26484;-77
2023/01/12 17:15:57;;;;;;;8.60;2.60;;;;;;;;;;107092;1256;26095;-79
2023/01/12 17:18:27;;;;;;;9.40;2.40;;;;;;;;;;107451;1266;23127;-79
2023/01/12 17:21:02;;;;;;;8.20;2.50;;;;;;;;;;107193;1270;24358;-79
2023/01/12 17:23:29;;;;;;;9.60;2.80;;;;;;;;;;107220;1272;25469;-78
2023/01/12 17:26:06;;;;;;;8.90;3.40;;;;;;;;;;107365;1255;24321;-78
2023/01/12 17:28:43;;;;;;;7.90;2.40;;;;;;;;;;107389;1266;22550;-80
2023/01/12 17:31:11;;;;;;;8.00;2.50;;;;;;;;;;107163;1274;25232;-76
2023/01/12 17:33:51;;;;;;;7.70;2.30;;;;;;;;;;107130;1266;22531;-82
2023/01/12 17:44:24;;;;;;;12.20;2.10;;;;;;;;;;106387;1286;24259;-79
2023/01/12 17:46:54;;;;;;;8.20;2.10;;;;;;;;;;107010;1275;25246;-79